Time;durP1;ratioP1;P1;durP2;ratioP2;P2;SDS_P1;SDS_P2;PMS_P1;PMS_P2;Temp;Humidity;BMP_temperature;BMP_pressure;BME280_temperature;BME280_humidity;BME280_pressure;Samples;Min_cycle;Max_cycle;Signal;HPM_P1;HPM_P2
2023/10/08 07:01:24;;;;;;;0.20;0.20;;;17.40;99.90;21.00;102265.00;;;;6189030;22;1433190;-67
2023/10/08 07:03:52;;;;;;;0.43;0.43;;;17.40;99.90;20.00;102252.00;;;;6251669;22;20189;-66
2023/10/08 07:06:31;;;;;;;0.20;0.20;;;17.10;99.90;19.70;102246.00;;;;6251682;22;20157;-66
2023/10/08 07:09:00;;;;;;;0.20;0.20;;;16.80;99.90;19.60;102247.00;;;;6278725;22;20565;-66
2023/10/08 07:11:35;;;;;;;0.20;0.20;;;16.60;99.90;19.90;102249.00;;;;6277200;22;20271;-66
2023/10/08 07:14:05;;;;;;;0.10;0.10;;;16.70;99.90;20.10;102259.00;;;;6277249;22;20143;-66
2023/10/08 07:16:41;;;;;;;0.30;0.30;;;16.80;99.90;20.90;102264.00;;;;6277294;22;20143;-66
2023/10/08 07:19:17;;;;;;;0.20;0.20;;;17.00;99.90;21.80;102285.00;;;;6277100;22;20139;-67
2023/10/08 07:21:54;;;;;;;0.20;0.20;;;17.60;99.90;21.80;102268.00;;;;6278708;22;20138;-66
2023/10/08 07:24:30;;;;;;;0.20;0.20;;;17.70;99.90;22.20;102284.00;;;;6278760;22;20524;-67
2023/10/08 07:27:11;;;;;;;0.20;0.20;;;18.00;99.90;21.50;102281.00;;;;6276519;22;20159;-67
2023/10/08 07:29:46;;;;;;;0.10;0.10;;;18.30;99.90;20.30;102258.00;;;;6278415;22;20161;-66
2023/10/08 07:32:18;;;;;;;0.20;0.20;;;17.50;99.90;21.20;102270.00;;;;6278331;22;20493;-66
2023/10/08 07:34:47;;;;;;;0.10;0.10;;;17.50;99.90;21.90;102279.00;;;;6278419;22;20151;-66
2023/10/08 07:37:16;;;;;;;0.10;0.10;;;18.00;99.90;21.20;102248.00;;;;6278401;22;20461;-66
2023/10/08 07:39:54;;;;;;;0.10;0.10;;;18.00;99.90;20.80;102271.00;;;;6277898;22;20468;-66
2023/10/08 07:42:25;;;;;;;0.10;0.10;;;17.90;99.90;22.10;102267.00;;;;6276529;22;20212;-66
2023/10/08 07:44:56;;;;;;;0.10;0.10;;;18.00;99.90;21.90;102270.00;;;;6278384;22;20141;-66
2023/10/08 07:47:28;;;;;;;0.10;0.10;;;18.40;99.90;23.20;102288.00;;;;6277999;22;20278;-66
2023/10/08 07:49:59;;;;;;;0.10;0.10;;;18.90;99.90;24.60;102279.00;;;;6276361;22;20165;-67
2023/10/08 07:52:36;;;;;;;0.28;0.28;;;19.90;99.90;25.20;102295.00;;;;6277708;22;20468;-67
2023/10/08 07:55:04;;;;;;;0.57;0.57;;;20.50;99.90;23.90;102303.00;;;;6277795;22;20137;-67
2023/10/08 07:57:35;;;;;;;0.10;0.10;;;20.50;99.90;23.50;102291.00;;;;6276609;22;20532;-66
2023/10/08 08:00:22;;;;;;;0.32;0.32;;;20.20;99.90;21.60;102269.00;;;;6276315;22;20551;-66
2023/10/08 08:02:57;;;;;;;0.20;0.20;;;19.40;99.90;21.90;102270.00;;;;6278046;22;20153;-66
2023/10/08 08:05:26;;;;;;;0.52;0.52;;;19.00;99.90;23.00;102284.00;;;;6276593;22;20191;-66
2023/10/08 08:07:59;;;;;;;0.10;0.10;;;19.50;99.90;24.20;102287.00;;;;6278003;22;20176;-67
2023/10/08 08:10:36;;;;;;;0.68;0.65;;;20.00;99.90;25.30;102291.00;;;;6276441;22;20141;-67
2023/10/08 08:13:07;;;;;;;0.10;0.10;;;20.90;99.90;23.30;102271.00;;;;6251803;22;20168;-67
2023/10/08 08:15:41;;;;;;;0.35;0.35;;;20.10;99.90;24.90;102311.00;;;;6276329;22;20468;-67
2023/10/08 08:18:22;;;;;;;1.27;1.27;;;20.90;99.90;22.90;102243.00;;;;6276156;22;20153;-66
2023/10/08 08:20:48;;;;;;;0.13;0.13;;;20.20;99.90;23.80;102276.00;;;;6278054;22;20149;-66
2023/10/08 08:23:21;;;;;;;0.10;0.10;;;20.20;99.90;24.70;102285.00;;;;6276172;22;20145;-67
2023/10/08 08:28:28;;;;;;;0.10;0.10;;;21.30;99.90;25.90;102317.00;;;;6276406;22;20141;-67
2023/10/08 08:30:57;;;;;;;0.10;0.10;;;21.50;99.90;27.00;102350.00;;;;6276228;22;20167;-67
2023/10/08 08:33:46;;;;;;;0.10;0.10;;;22.40;99.90;26.70;102369.00;;;;6277795;22;20256;-67
2023/10/08 08:36:17;;;;;;;0.10;0.10;;;22.60;99.90;28.70;102396.00;;;;6276242;22;20226;-67
2023/10/08 08:38:45;;;;;;;0.45;0.45;;;23.60;99.90;28.90;102406.00;;;;6277645;22;20152;-67
2023/10/08 08:41:20;;;;;;;0.20;0.20;;;24.20;99.90;29.10;102413.00;;;;6250856;22;20149;-67
2023/10/08 08:43:59;;;;;;;0.20;0.20;;;24.60;99.90;29.20;102423.00;;;;6276260;22;20147;-67
2023/10/08 08:46:35;;;;;;;0.40;0.40;;;24.50;99.90;28.00;102442.00;;;;6276295;22;20137;-67
2023/10/08 08:49:04;;;;;;;0.10;0.10;;;24.20;99.90;27.40;102451.00;;;;6277537;22;20565;-67
2023/10/08 08:51:33;;;;;;;0.10;0.10;;;23.60;99.90;27.90;102439.00;;;;6276464;22;20164;-67
2023/10/08 08:54:13;;;;;;;0.25;0.25;;;23.60;99.90;28.40;102441.00;;;;6275643;22;20187;-67
2023/10/08 08:56:44;;;;;;;0.10;0.10;;;23.90;99.90;26.80;102433.00;;;;6276172;22;20144;-67
2023/10/08 08:59:19;;;;;;;0.63;0.63;;;23.40;99.90;27.90;102438.00;;;;6275813;22;20141;-67
2023/10/08 09:01:45;;;;;;;2.00;1.85;;;23.50;99.90;25.90;102418.00;;;;6276139;22;20183;-66
2023/10/08 09:04:14;;;;;;;0.32;0.28;;;22.80;99.90;24.10;102375.00;;;;6277260;22;20134;-66
2023/10/08 09:06:45;;;;;;;6.07;5.57;;;21.70;99.90;24.00;102335.00;;;;6277071;22;20138;-66
2023/10/08 09:09:23;;;;;;;1.80;1.65;;;21.40;99.90;23.00;102294.00;;;;6277356;22;20141;-66
2023/10/08 09:11:55;;;;;;;0.10;0.10;;;20.60;99.90;25.00;102332.00;;;;6275947;22;20153;-66
2023/10/08 09:14:25;;;;;;;2.33;2.13;;;20.80;99.90;24.60;102339.00;;;;6276058;22;20141;-67
2023/10/08 09:16:54;;;;;;;2.90;1.90;;;21.50;99.90;24.00;102323.00;;;;6275582;22;20191;-66
2023/10/08 09:19:38;;;;;;;1.33;1.30;;;21.00;99.90;23.80;102317.00;;;;6275806;22;20204;-66
2023/10/08 09:22:19;;;;;;;0.68;0.55;;;21.00;99.90;24.50;102332.00;;;;6275406;22;20156;-66
2023/10/08 09:24:53;;;;;;;0.17;0.17;;;21.40;99.90;25.40;102322.00;;;;6277305;22;20137;-66
2023/10/08 09:27:24;;;;;;;0.10;0.10;;;21.80;99.90;23.50;102300.00;;;;6275972;22;20144;-66
2023/10/08 09:29:59;;;;;;;1.45;0.85;;;21.10;99.90;23.70;102319.00;;;;6275594;22;20247;-66
2023/10/08 09:32:30;;;;;;;1.10;1.10;;;20.90;99.90;24.20;102327.00;;;;6277417;22;20592;-66
2023/10/08 09:35:03;;;;;;;1.90;1.77;;;21.40;99.90;25.90;102344.00;;;;6275408;22;20577;-67
2023/10/08 09:37:37;;;;;;;0.68;0.68;;;22.00;99.90;27.20;102363.00;;;;6276965;22;20143;-67
2023/10/08 09:40:09;;;;;;;2.90;1.70;;;22.80;99.90;23.80;102324.00;;;;6275633;22;20152;-67
2023/10/08 09:42:39;;;;;;;0.10;0.10;;;21.90;99.90;25.90;102346.00;;;;6250411;22;20240;-66
2023/10/08 09:45:13;;;;;;;0.55;0.55;;;22.10;99.90;27.30;102276.00;;;;6276823;22;20134;-67
2023/10/08 09:47:52;;;;;;;1.75;0.90;;;22.80;99.90;26.40;102383.00;;;;6275809;22;20159;-67
2023/10/08 09:50:43;;;;;;;1.63;1.52;;;23.40;99.90;25.00;102345.00;;;;6275511;22;20137;-67
2023/10/08 09:53:22;;;;;;;0.80;0.80;;;22.70;99.90;27.30;102363.00;;;;6250560;22;20209;-67
2023/10/08 09:55:56;;;;;;;0.10;0.10;;;23.20;99.90;28.60;102390.00;;;;6277120;22;20144;-67
2023/10/08 09:58:33;;;;;;;0.10;0.10;;;24.00;99.90;28.00;102398.00;;;;6277462;22;20199;-67
2023/10/08 10:01:04;;;;;;;0.08;0.08;;;24.10;99.90;29.20;102415.00;;;;6274811;22;20226;-69
2023/10/08 10:03:39;;;;;;;0.20;0.20;;;24.80;99.90;28.10;102425.00;;;;6275831;22;20169;-66
2023/10/08 10:06:17;;;;;;;0.10;0.10;;;24.60;99.90;28.90;102422.00;;;;6274769;22;20148;-66
2023/10/08 10:08:47;;;;;;;0.10;0.10;;;24.80;99.90;28.50;102437.00;;;;6277051;22;20137;-66
2023/10/08 10:11:16;;;;;;;0.82;0.82;;;24.70;99.90;29.10;102431.00;;;;6275229;22;20160;-67
2023/10/08 10:14:02;;;;;;;0.25;0.25;;;24.80;99.90;29.40;102436.00;;;;6275475;22;20609;-67
2023/10/08 10:16:37;;;;;;;0.10;0.10;;;25.20;99.90;29.70;102418.00;;;;6275575;22;20141;-67
2023/10/08 10:19:06;;;;;;;0.10;0.10;;;25.40;99.90;28.60;102458.00;;;;6277026;22;20223;-67
2023/10/08 10:33:37;;;;;;;0.25;0.25;;;23.20;99.90;26.50;102352.00;;;;5070055;28;21068;-66
2023/10/08 10:36:08;;;;;;;0.10;0.10;;;23.40;99.90;26.40;102349.00;;;;5048176;28;20194;-66
2023/10/08 10:38:42;;;;;;;0.57;0.57;;;23.50;99.90;27.40;102364.00;;;;5060501;28;20178;-66
2023/10/08 10:41:17;;;;;;;0.10;0.10;;;23.70;99.90;27.70;102392.00;;;;5059378;28;20194;-66
2023/10/08 10:43:52;;;;;;;0.10;0.10;;;24.00;99.90;29.30;102413.00;;;;5046252;28;20192;-66
2023/10/08 10:46:31;;;;;;;0.10;0.10;;;24.70;99.90;30.40;102431.00;;;;5045098;28;20636;-66
2023/10/08 10:52:11;;;;;;;0.10;0.10;;;25.80;99.90;29.60;102450.00;;;;5037735;28;20744;-66
2023/10/08 10:54:49;;;;;;;0.55;0.35;;;26.10;99.90;29.60;102457.00;;;;5064127;28;20209;-66
2023/10/08 10:57:26;;;;;;;0.68;0.55;;;26.00;99.90;30.00;102444.00;;;;5034559;28;20187;-66
2023/10/08 10:59:54;;;;;;;1.83;1.52;;;26.10;99.90;30.70;102442.00;;;;5041624;28;20186;-66
2023/10/08 11:02:39;;;;;;;0.10;0.10;;;26.20;99.90;30.30;102449.00;;;;5051535;28;20248;-66
2023/10/08 11:05:19;;;;;;;0.10;0.10;;;26.10;99.90;30.30;102450.00;;;;5036563;28;20187;-66
2023/10/08 11:07:49;;;;;;;0.95;0.90;;;26.20;99.90;30.50;102441.00;;;;5056353;28;20186;-68
2023/10/08 11:10:24;;;;;;;0.10;0.10;;;26.50;99.90;28.00;102465.00;;;;5045180;28;20912;-68
2023/10/08 11:12:54;;;;;;;2.00;1.08;;;25.30;99.90;30.00;102453.00;;;;5062741;28;20217;-66
2023/10/08 11:15:29;;;;;;;0.10;0.10;;;25.70;99.90;30.30;102443.00;;;;5036492;28;20170;-66
2023/10/08 11:17:59;;;;;;;0.15;0.15;;;26.00;99.90;30.00;102438.00;;;;5051019;28;20183;-66
2023/10/08 11:20:37;;;;;;;0.52;0.52;;;26.20;99.90;29.40;102461.00;;;;5055782;28;20186;-66
2023/10/08 11:23:18;;;;;;;0.10;0.10;;;25.80;99.90;29.10;102450.00;;;;5042909;28;20229;-66
2023/10/08 11:26:02;;;;;;;6.50;1.65;;;25.40;99.90;28.40;102453.00;;;;5029913;28;20186;-66
2023/10/08 11:28:42;;;;;;;0.65;0.65;;;25.10;99.90;27.80;102453.00;;;;5053436;28;20199;-66
2023/10/08 11:31:13;;;;;;;0.30;0.30;;;25.20;99.90;29.60;102437.00;;;;5043876;28;20258;-66
2023/10/08 11:33:55;;;;;;;0.50;0.50;;;25.40;99.90;29.00;102437.00;;;;5046258;28;20216;-66
2023/10/08 11:36:31;;;;;;;0.10;0.10;;;25.40;99.90;29.90;102428.00;;;;5018139;28;20187;-66
2023/10/08 11:39:21;;;;;;;0.52;0.50;;;25.70;99.90;30.10;102398.00;;;;5033424;28;20265;-66
2023/10/08 11:42:06;;;;;;;0.10;0.10;;;26.20;99.90;29.40;102413.00;;;;5045798;28;20211;-67
2023/10/08 11:44:39;;;;;;;0.30;0.30;;;25.80;99.90;31.50;102404.00;;;;5040853;28;20246;-67
2023/10/08 11:47:20;;;;;;;3.28;0.98;;;26.60;99.90;27.50;102436.00;;;;5028591;28;20194;-66
2023/10/08 11:50:08;;;;;;;0.10;0.10;;;25.80;99.90;30.30;102423.00;;;;5027617;28;20187;-66
2023/10/08 11:52:41;;;;;;;0.10;0.10;;;25.80;99.90;31.40;102408.00;;;;5029908;28;20694;-66
2023/10/08 11:55:19;;;;;;;0.10;0.10;;;26.50;99.90;30.40;102426.00;;;;5029707;28;20258;-66
2023/10/08 11:57:52;;;;;;;0.47;0.47;;;26.20;99.90;29.90;102431.00;;;;5023414;28;20187;-66
2023/10/08 12:00:27;;;;;;;0.20;0.20;;;26.30;99.90;30.40;102426.00;;;;5029374;28;20190;-66
2023/10/08 12:03:01;;;;;;;4.63;2.30;;;26.40;99.90;30.40;102410.00;;;;5027458;28;20179;-66
2023/10/08 12:05:30;;;;;;;0.10;0.10;;;26.70;99.90;29.40;102408.00;;;;5027256;28;20179;-66
2023/10/08 12:08:03;;;;;;;0.57;0.57;;;26.20;99.90;29.60;102425.00;;;;5022817;28;20179;-66
2023/10/08 12:10:34;;;;;;;0.10;0.10;;;25.90;99.90;30.70;102417.00;;;;5025164;28;20206;-66
2023/10/08 12:13:10;;;;;;;0.10;0.10;;;26.00;99.90;30.40;102416.00;;;;5028932;28;20719;-67
2023/10/08 12:15:39;;;;;;;0.10;0.10;;;26.30;99.90;29.70;102413.00;;;;5025237;28;20187;-66
2023/10/08 12:18:39;;;;;;;1.02;0.65;;;25.80;99.90;29.60;102421.00;;;;5031329;28;20189;-66
2023/10/08 12:21:02;;;;;;;0.85;0.85;;;25.70;99.90;29.90;102408.00;;;;5014361;28;20551;-66
2023/10/08 12:23:39;;;;;;;0.20;0.20;;;25.60;99.90;28.10;102425.00;;;;5015656;28;20222;-66
2023/10/08 12:26:07;;;;;;;0.10;0.10;;;25.20;99.90;27.50;102413.00;;;;5015261;28;20222;-66
2023/10/08 12:28:36;;;;;;;0.10;0.10;;;24.20;99.90;27.40;102399.00;;;;5024993;28;20576;-66
2023/10/08 12:31:05;;;;;;;2.88;2.40;;;24.00;99.90;28.50;102395.00;;;;5047185;28;20544;-66
2023/10/08 12:33:37;;;;;;;0.68;0.68;;;24.50;99.90;29.50;102386.00;;;;5030701;28;20187;-66
2023/10/08 12:36:12;;;;;;;0.38;0.38;;;25.00;99.90;27.90;102405.00;;;;5034521;28;20270;-66
2023/10/08 12:38:43;;;;;;;0.20;0.20;;;25.00;99.90;27.30;102385.00;;;;5003439;28;20206;-66
2023/10/08 12:41:12;;;;;;;0.10;0.10;;;24.30;99.90;28.00;102357.00;;;;5058404;28;20188;-66
2023/10/08 12:43:45;;;;;;;0.55;0.55;;;24.20;99.90;29.30;102368.00;;;;5033349;28;20206;-67
2023/10/08 12:46:21;;;;;;;0.32;0.32;;;25.00;99.90;27.50;102385.00;;;;5018464;28;20196;-68
2023/10/08 12:48:54;;;;;;;0.10;0.10;;;24.70;99.90;28.20;102370.00;;;;5022593;28;20193;-66
2023/10/08 12:51:31;;;;;;;0.10;0.10;;;24.60;99.90;28.40;102374.00;;;;5012062;28;20241;-67
2023/10/08 12:53:58;;;;;;;4.57;1.75;;;24.70;99.90;26.30;102338.00;;;;5031359;28;20685;-66
2023/10/08 12:56:35;;;;;;;0.20;0.20;;;23.70;99.90;27.50;102326.00;;;;5035823;28;20219;-66
2023/10/08 12:59:07;;;;;;;1.00;1.00;;;23.80;99.90;27.00;102319.00;;;;5020235;28;20591;-67
2023/10/08 13:01:41;;;;;;;2.17;0.80;;;23.80;99.90;27.20;102323.00;;;;5031307;28;20194;-67
2023/10/08 13:04:21;;;;;;;0.30;0.30;;;23.80;99.90;27.50;102311.00;;;;5029537;28;20274;-68
2023/10/08 13:06:56;;;;;;;0.75;0.60;;;23.80;99.90;27.40;102333.00;;;;5042947;28;20701;-67
2023/10/08 13:09:26;;;;;;;0.10;0.10;;;23.90;99.90;27.40;102335.00;;;;5035767;28;20183;-68
2023/10/08 13:11:54;;;;;;;0.10;0.10;;;24.00;99.90;28.90;102342.00;;;;5016971;28;20563;-68
2023/10/08 13:14:22;;;;;;;0.52;0.47;;;24.40;99.90;29.80;102337.00;;;;5018471;28;20290;-68
2023/10/08 13:16:53;;;;;;;1.42;1.40;;;25.10;99.90;28.90;102357.00;;;;5024483;28;20187;-68
2023/10/08 13:19:26;;;;;;;0.10;0.10;;;25.00;99.90;29.70;102348.00;;;;5025108;28;20184;-67
2023/10/08 13:21:56;;;;;;;0.20;0.20;;;25.20;99.90;30.30;102345.00;;;;5007035;28;20179;-68
2023/10/08 13:24:30;;;;;;;0.20;0.20;;;25.60;99.90;27.60;102372.00;;;;5023133;28;20187;-68
2023/10/08 13:27:06;;;;;;;0.10;0.10;;;24.80;99.90;28.50;102345.00;;;;5039169;28;20665;-67
2023/10/08 13:29:32;;;;;;;0.40;0.40;;;24.50;99.90;27.90;102338.00;;;;5023545;28;20209;-68
2023/10/08 13:35:15;;;;;;;0.10;0.10;;;24.30;99.90;28.00;102322.00;;;;5030104;28;20873;-81
2023/10/08 13:37:53;;;;;;;0.10;0.10;;;24.20;99.90;28.60;102314.00;;;;5031369;28;20202;-71
2023/10/08 13:40:19;;;;;;;0.20;0.20;;;24.40;99.90;28.60;102317.00;;;;5000020;28;20199;-69
2023/10/08 13:43:11;;;;;;;2.15;0.93;;;24.90;99.90;28.60;102343.00;;;;5014387;28;20191;-69
2023/10/08 13:45:39;;;;;;;0.13;0.13;;;24.80;99.90;28.00;102314.00;;;;5016364;28;20186;-72
2023/10/08 13:48:14;;;;;;;1.40;1.25;;;24.20;99.90;28.80;102333.00;;;;5009298;28;20245;-69
2023/10/08 13:50:48;;;;;;;3.47;3.38;;;24.90;99.90;29.00;102304.00;;;;5025745;28;20875;-69
2023/10/08 13:53:16;;;;;;;0.10;0.10;;;24.70;99.90;29.10;102322.00;;;;5019027;28;20210;-69
2023/10/08 13:55:58;;;;;;;0.10;0.10;;;25.00;99.90;30.20;102319.00;;;;5032393;28;20266;-69
2023/10/08 13:58:35;;;;;;;0.10;0.10;;;25.40;99.90;30.10;102310.00;;;;5009768;28;20186;-70
2023/10/08 14:01:03;;;;;;;0.75;0.40;;;25.50;99.90;28.40;102341.00;;;;5031720;28;20648;-69
2023/10/08 14:03:33;;;;;;;0.85;0.85;;;25.10;99.90;28.60;102320.00;;;;5033888;28;20187;-69
2023/10/08 14:06:04;;;;;;;0.10;0.10;;;25.00;99.90;29.70;102322.00;;;;5017018;28;20216;-69
2023/10/08 14:08:33;;;;;;;0.30;0.30;;;25.00;99.90;28.20;102336.00;;;;4997733;28;20183;-69
2023/10/08 14:11:02;;;;;;;1.67;1.48;;;24.80;99.90;28.10;102346.00;;;;5011930;28;20259;-69
2023/10/08 14:13:32;;;;;;;0.10;0.10;;;24.60;99.90;27.70;102333.00;;;;5020992;28;20226;-69
2023/10/08 14:16:02;;;;;;;0.20;0.20;;;24.20;99.90;27.40;102334.00;;;;5017832;28;20223;-69
2023/10/08 14:18:50;;;;;;;0.10;0.10;;;24.10;99.90;29.10;102309.00;;;;5020742;28;20549;-70
2023/10/08 14:21:23;;;;;;;0.17;0.17;;;24.50;99.90;29.50;102304.00;;;;5015229;28;20593;-70
2023/10/08 14:23:52;;;;;;;0.10;0.10;;;25.10;99.90;29.30;102306.00;;;;5031134;28;20521;-70
2023/10/08 14:26:22;;;;;;;0.93;0.85;;;25.00;99.90;29.30;102312.00;;;;5037583;28;20194;-69
2023/10/08 14:28:58;;;;;;;0.75;0.75;;;25.20;99.90;27.40;102335.00;;;;5016465;28;20190;-69
2023/10/08 14:31:26;;;;;;;3.30;2.88;;;24.60;99.90;27.50;102334.00;;;;5035665;28;20245;-69
2023/10/08 14:33:59;;;;;;;1.67;1.17;;;24.10;99.90;27.70;102339.00;;;;5016185;28;20186;-70
2023/10/08 14:44:42;;;;;;;1.27;1.17;;;24.70;99.90;29.80;102303.00;;;;5025666;28;20617;-69
2023/10/08 14:47:17;;;;;;;3.20;1.95;;;25.30;99.90;28.70;102313.00;;;;5040431;28;20218;-68
2023/10/08 14:50:00;;;;;;;0.10;0.10;;;25.00;99.90;27.50;102330.00;;;;5021580;28;20187;-69
2023/10/08 14:52:27;;;;;;;0.17;0.17;;;24.50;99.90;29.20;102306.00;;;;5014943;28;20202;-69
2023/10/08 14:54:55;;;;;;;0.10;0.10;;;24.70;99.90;27.70;102317.00;;;;5038407;28;20189;-69
2023/10/08 14:57:28;;;;;;;0.30;0.30;;;24.30;99.90;26.90;102319.00;;;;5015877;28;20197;-69
2023/10/08 14:59:57;;;;;;;0.30;0.30;;;23.80;99.90;28.10;102305.00;;;;5035218;28;20187;-69
2023/10/08 15:02:29;;;;;;;0.63;0.50;;;24.10;99.90;27.20;102309.00;;;;5024840;28;20710;-69
2023/10/08 15:04:58;;;;;;;1.08;1.08;;;24.00;99.90;26.70;102317.00;;;;5023106;28;20210;-69
2023/10/08 15:07:32;;;;;;;7.03;1.55;;;23.70;99.90;27.20;102300.00;;;;5027348;28;20179;-69
2023/10/08 15:10:01;;;;;;;2.13;2.03;;;23.80;99.90;27.70;102287.00;;;;5043035;28;20186;-68
2023/10/08 15:12:28;;;;;;;0.50;0.50;;;24.10;99.90;28.00;102283.00;;;;5029956;28;20218;-69
2023/10/08 15:14:56;;;;;;;1.35;1.00;;;24.10;99.90;28.40;102278.00;;;;5019725;28;20263;-68
2023/10/08 15:17:26;;;;;;;0.20;0.20;;;24.30;99.90;28.50;102280.00;;;;5046183;28;20179;-68
2023/10/08 15:19:52;;;;;;;0.10;0.10;;;24.30;99.90;27.80;102295.00;;;;5046338;28;20192;-70
2023/10/08 15:22:18;;;;;;;0.30;0.30;;;24.30;99.90;27.60;102287.00;;;;5011768;28;20222;-69
2023/10/08 15:24:45;;;;;;;0.10;0.10;;;24.10;99.90;28.70;102273.00;;;;5013987;28;20198;-68
2023/10/08 15:27:20;;;;;;;0.40;0.40;;;24.20;99.90;29.20;102272.00;;;;5020380;28;20666;-68
2023/10/08 15:29:46;;;;;;;0.55;0.55;;;24.60;99.90;28.30;102274.00;;;;5027022;28;20186;-68
2023/10/08 15:32:12;;;;;;;1.65;1.65;;;24.30;99.90;29.20;102275.00;;;;5022701;28;20207;-68
2023/10/08 15:34:38;;;;;;;0.68;0.68;;;24.70;99.90;27.40;102294.00;;;;5027488;28;20659;-67
2023/10/08 15:37:22;;;;;;;1.90;1.85;;;24.30;99.90;27.80;102296.00;;;;5026092;28;20222;-68
2023/10/08 15:40:19;;;;;;;0.10;0.10;;;24.00;99.90;28.40;102288.00;;;;5028685;28;20192;-68
2023/10/08 15:43:28;;;;;;;0.13;0.13;;;24.00;99.90;27.90;102285.00;;;;5019744;28;20745;-68
2023/10/08 15:46:17;;;;;;;0.90;0.90;;;24.10;99.90;28.40;102282.00;;;;5013537;28;20721;-69
2023/10/08 15:48:43;;;;;;;3.42;2.95;;;24.20;99.90;28.70;102273.00;;;;5038516;28;20668;-68
2023/10/08 15:51:47;;;;;;;0.20;0.20;;;24.30;99.90;28.90;102273.00;;;;5018726;28;20194;-68
2023/10/08 15:54:13;;;;;;;1.60;1.50;;;24.60;99.90;27.40;102292.00;;;;5006856;28;20222;-67
2023/10/08 15:56:59;;;;;;;0.20;0.20;;;24.10;99.90;26.50;102279.00;;;;5011407;28;20187;-67
2023/10/08 16:00:03;;;;;;;1.17;1.10;;;23.60;99.90;26.80;102248.00;;;;5035699;28;20672;-66
2023/10/08 16:02:56;;;;;;;0.20;0.20;;;23.40;99.90;28.40;102240.00;;;;5025730;28;20652;-68
2023/10/08 16:05:40;;;;;;;0.93;0.60;;;23.80;99.90;27.50;102261.00;;;;5031807;28;20194;-69
2023/10/08 16:08:06;;;;;;;0.20;0.20;;;23.80;99.90;27.90;102259.00;;;;5016623;28;20630;-68
2023/10/08 16:10:34;;;;;;;0.10;0.10;;;23.80;99.90;27.60;102264.00;;;;4997048;28;20193;-68
2023/10/08 16:13:49;;;;;;;0.20;0.20;;;23.70;99.90;28.50;102246.00;;;;5023786;28;20215;-68
2023/10/08 16:16:36;;;;;;;0.30;0.30;;;23.80;99.90;28.20;102245.00;;;;5025795;28;20645;-72
2023/10/08 16:19:02;;;;;;;0.10;0.10;;;23.90;99.90;28.30;102249.00;;;;5026435;28;20196;-72
2023/10/08 16:21:34;;;;;;;1.63;1.55;;;23.90;99.90;28.10;102246.00;;;;5015774;28;20233;-72
2023/10/08 16:24:00;;;;;;;0.10;0.10;;;23.80;99.90;28.80;102249.00;;;;5000865;28;20183;-72
2023/10/08 16:26:26;;;;;;;0.20;0.20;;;23.90;99.90;28.70;102248.00;;;;5032112;28;20202;-72
2023/10/08 16:28:52;;;;;;;0.10;0.10;;;24.10;99.90;28.80;102255.00;;;;5020677;28;20182;-72
2023/10/08 16:31:18;;;;;;;0.10;0.10;;;24.20;99.90;28.90;102258.00;;;;5022120;28;20540;-72
2023/10/08 16:33:44;;;;;;;0.60;0.60;;;24.20;99.90;28.20;102261.00;;;;5016590;28;20191;-72
2023/10/08 16:36:21;;;;;;;0.20;0.20;;;24.00;99.90;28.60;102253.00;;;;5015580;28;20184;-72
2023/10/08 16:38:59;;;;;;;0.20;0.20;;;24.00;99.90;28.50;102259.00;;;;5005044;28;20193;-72
2023/10/08 16:41:25;;;;;;;0.22;0.22;;;24.00;99.90;28.50;102249.00;;;;5026545;28;20190;-72
2023/10/08 16:43:51;;;;;;;0.17;0.17;;;23.90;99.90;28.00;102260.00;;;;5026701;28;20217;-73
2023/10/08 16:46:17;;;;;;;0.20;0.20;;;23.70;99.90;28.20;102250.00;;;;5040661;28;20183;-71
2023/10/08 16:48:45;;;;;;;0.20;0.20;;;23.60;99.90;28.10;102254.00;;;;5048028;28;20206;-72
2023/10/08 16:51:11;;;;;;;0.20;0.20;;;23.50;99.90;28.20;102238.00;;;;5045201;28;20237;-72
2023/10/08 16:53:46;;;;;;;0.20;0.20;;;23.50;99.90;28.30;102246.00;;;;5047177;28;20261;-72
2023/10/08 16:56:21;;;;;;;0.20;0.20;;;23.60;99.90;27.20;102233.00;;;;5028085;28;20206;-72
2023/10/08 16:59:07;;;;;;;1.00;1.00;;;23.20;99.90;27.00;102214.00;;;;5039880;28;20211;-72
2023/10/08 17:01:50;;;;;;;2.17;2.08;;;23.00;99.90;26.60;102185.00;;;;4998755;28;20529;-72
2023/10/08 17:04:16;;;;;;;0.30;0.30;;;22.70;99.90;26.80;102146.00;;;;5045920;28;20711;-72
2023/10/08 17:06:42;;;;;;;0.20;0.20;;;22.70;99.90;26.40;102160.00;;;;5049261;28;20183;-72
2023/10/08 17:09:18;;;;;;;0.20;0.20;;;22.60;99.90;26.00;102141.00;;;;5015722;28;20180;-72
2023/10/08 17:11:48;;;;;;;0.20;0.20;;;22.40;99.90;26.30;102150.00;;;;5015602;28;20241;-72
2023/10/08 17:14:15;;;;;;;0.73;0.73;;;22.40;99.90;25.90;102147.00;;;;5032530;28;20195;-72
2023/10/08 17:16:43;;;;;;;0.45;0.45;;;22.30;99.90;25.80;102129.00;;;;5045874;28;20198;-72
2023/10/08 17:19:10;;;;;;;0.20;0.20;;;22.10;99.90;25.80;102132.00;;;;5040597;28;20254;-72
2023/10/08 17:21:36;;;;;;;0.20;0.20;;;22.10;99.90;26.10;102133.00;;;;5003403;28;20191;-72
2023/10/08 17:24:25;;;;;;;0.20;0.20;;;22.10;99.90;26.80;102119.00;;;;5043038;28;20213;-72
2023/10/08 17:26:51;;;;;;;0.20;0.20;;;22.20;99.90;26.50;102107.00;;;;5020924;28;20186;-72
2023/10/08 17:29:17;;;;;;;0.20;0.20;;;22.30;99.90;27.20;102155.00;;;;5001630;28;20660;-72
2023/10/08 17:31:44;;;;;;;0.20;0.20;;;22.70;99.90;26.90;102152.00;;;;5020694;28;20239;-72
2023/10/08 17:34:16;;;;;;;0.20;0.20;;;22.70;99.90;27.10;102159.00;;;;5000544;28;20193;-72
2023/10/08 17:36:47;;;;;;;0.20;0.20;;;22.80;99.90;26.70;102137.00;;;;5013292;28;20175;-73
2023/10/08 17:39:16;;;;;;;0.22;0.22;;;22.60;99.90;26.70;102143.00;;;;5025230;28;20206;-72
2023/10/08 17:41:45;;;;;;;0.20;0.20;;;22.50;99.90;26.60;102131.00;;;;5013770;28;20215;-72
2023/10/08 17:44:14;;;;;;;0.20;0.20;;;22.50;99.90;26.50;102133.00;;;;4999228;28;20759;-72
2023/10/08 17:46:42;;;;;;;0.20;0.20;;;22.50;99.90;26.20;102116.00;;;;4997270;28;20611;-72
2023/10/08 17:49:09;;;;;;;0.25;0.25;;;22.30;99.90;25.40;102112.00;;;;5001020;28;20190;-72
2023/10/08 17:51:35;;;;;;;0.20;0.20;;;21.80;99.90;25.70;102107.00;;;;5025481;28;20248;-72
2023/10/08 17:54:04;;;;;;;0.25;0.25;;;21.70;99.90;26.00;102109.00;;;;5014036;28;20199;-72
2023/10/08 17:56:32;;;;;;;0.35;0.35;;;21.80;99.90;25.10;102100.00;;;;5016321;28;20275;-72
2023/10/08 17:58:59;;;;;;;0.35;0.35;;;21.60;99.90;24.30;102081.00;;;;5008247;28;20179;-72
2023/10/08 18:01:44;;;;;;;0.20;0.20;;;21.10;99.90;24.10;102085.00;;;;5023350;28;20179;-72
2023/10/08 18:04:48;;;;;;;0.20;0.20;;;20.90;99.90;24.20;102073.00;;;;5026105;28;20207;-72
2023/10/08 18:07:54;;;;;;;0.20;0.20;;;20.70;99.90;24.20;102068.00;;;;5008867;28;20214;-72
2023/10/08 18:11:04;;;;;;;0.20;0.20;;;20.60;99.90;24.20;102036.00;;;;5009520;28;20207;-73
2023/10/08 18:14:15;;;;;;;0.20;0.20;;;20.70;99.90;24.70;102080.00;;;;5040065;28;20250;-72
2023/10/08 18:17:05;;;;;;;2.78;2.67;;;20.80;99.90;25.20;102069.00;;;;5022423;28;20188;-73
2023/10/08 18:19:49;;;;;;;0.20;0.20;;;21.00;99.90;25.40;102073.00;;;;4987412;28;20212;-72
2023/10/08 18:26:44;;;;;;;0.20;0.20;;;21.00;99.90;24.30;102056.00;;;;5026170;28;20198;-72
2023/10/08 18:29:32;;;;;;;0.20;0.20;;;20.90;99.90;24.40;102044.00;;;;5032321;28;20652;-72
2023/10/08 18:32:06;;;;;;;0.40;0.40;;;20.80;99.90;24.40;102056.00;;;;5021698;28;20203;-72
2023/10/08 18:35:27;;;;;;;0.20;0.20;;;20.70;99.90;24.80;102057.00;;;;5033304;28;20183;-72
2023/10/08 18:38:14;;;;;;;0.68;0.68;;;20.70;99.90;24.60;102047.00;;;;5024581;28;20199;-72
2023/10/08 18:41:17;;;;;;;0.20;0.20;;;20.80;99.90;24.40;102036.00;;;;4994327;28;20245;-72
2023/10/08 18:44:36;;;;;;;0.20;0.20;;;20.70;99.90;24.30;102007.00;;;;5031420;28;20191;-72
2023/10/08 18:47:19;;;;;;;0.65;0.65;;;20.70;99.90;24.40;102033.00;;;;5012187;28;20641;-72
2023/10/08 18:49:58;;;;;;;0.20;0.20;;;20.70;99.90;24.10;102036.00;;;;5043367;28;20189;-72
2023/10/08 18:52:48;;;;;;;0.20;0.20;;;20.60;99.90;24.00;102025.00;;;;5036743;28;20207;-73
2023/10/08 18:55:15;;;;;;;0.20;0.20;;;20.50;99.90;24.00;102024.00;;;;5012304;28;20187;-72